sensor_id;sensor_type;location;lat;lon;timestamp;temperature;humidity
3923;DHT22;1976;51.694;6.256;2022-09-23T00:01:48;13.00;99.70
3923;DHT22;1976;51.694;6.256;2022-09-23T00:04:13;12.90;99.90
3923;DHT22;1976;51.694;6.256;2022-09-23T00:06:39;12.80;99.90
3923;DHT22;1976;51.694;6.256;2022-09-23T00:09:06;12.70;99.90
3923;DHT22;1976;51.694;6.256;2022-09-23T00:11:31;12.60;99.90
3923;DHT22;1976;51.694;6.256;2022-09-23T00:13:58;12.50;99.90
3923;DHT22;1976;51.694;6.256;2022-09-23T00:16:30;12.50;99.90
3923;DHT22;1976;51.694;6.256;2022-09-23T00:19:01;12.40;99.90
3923;DHT22;1976;51.694;6.256;2022-09-23T00:21:28;12.30;99.90
3923;DHT22;1976;51.694;6.256;2022-09-23T00:23:53;12.10;99.90
3923;DHT22;1976;51.694;6.256;2022-09-23T00:26:21;12.10;99.90
3923;DHT22;1976;51.694;6.256;2022-09-23T00:28:47;12.00;99.90
3923;DHT22;1976;51.694;6.256;2022-09-23T00:31:24;11.90;99.90
3923;DHT22;1976;51.694;6.256;2022-09-23T00:33:58;12.00;99.90
3923;DHT22;1976;51.694;6.256;2022-09-23T00:36:25;12.00;99.90
3923;DHT22;1976;51.694;6.256;2022-09-23T00:38:51;12.00;99.90
3923;DHT22;1976;51.694;6.256;2022-09-23T00:41:18;12.00;99.90
3923;DHT22;1976;51.694;6.256;2022-09-23T00:46:27;11.90;99.90
3923;DHT22;1976;51.694;6.256;2022-09-23T00:49:21;11.90;99.90
3923;DHT22;1976;51.694;6.256;2022-09-23T00:51:53;11.80;99.90
3923;DHT22;1976;51.694;6.256;2022-09-23T00:54:21;11.70;99.90
3923;DHT22;1976;51.694;6.256;2022-09-23T00:56:48;11.70;99.90
3923;DHT22;1976;51.694;6.256;2022-09-23T00:59:14;11.70;99.90
3923;DHT22;1976;51.694;6.256;2022-09-23T01:01:41;11.70;99.90
3923;DHT22;1976;51.694;6.256;2022-09-23T01:04:07;11.70;99.90
3923;DHT22;1976;51.694;6.256;2022-09-23T01:06:34;11.80;99.90
3923;DHT22;1976;51.694;6.256;2022-09-23T01:09:00;11.80;99.90
3923;DHT22;1976;51.694;6.256;2022-09-23T01:28:46;11.40;99.90
3923;DHT22;1976;51.694;6.256;2022-09-23T01:34:35;11.20;99.90
3923;DHT22;1976;51.694;6.256;2022-09-23T01:37:22;11.20;99.90
3923;DHT22;1976;51.694;6.256;2022-09-23T01:43:04;11.40;99.90
3923;DHT22;1976;51.694;6.256;2022-09-23T01:45:23;11.40;99.90
3923;DHT22;1976;51.694;6.256;2022-09-23T01:48:11;11.40;99.90
3923;DHT22;1976;51.694;6.256;2022-09-23T01:50:54;11.30;99.90
3923;DHT22;1976;51.694;6.256;2022-09-23T01:53:45;11.20;99.90
3923;DHT22;1976;51.694;6.256;2022-09-23T01:56:24;11.20;99.90
3923;DHT22;1976;51.694;6.256;2022-09-23T01:59:00;11.30;99.90
3923;DHT22;1976;51.694;6.256;2022-09-23T02:01:53;11.30;99.90
3923;DHT22;1976;51.694;6.256;2022-09-23T02:04:57;11.20;99.90
3923;DHT22;1976;51.694;6.256;2022-09-23T02:07:16;11.20;99.90
3923;DHT22;1976;51.694;6.256;2022-09-23T02:09:48;11.20;99.90
3923;DHT22;1976;51.694;6.256;2022-09-23T02:12:19;11.20;99.90
3923;DHT22;1976;51.694;6.256;2022-09-23T02:15:02;11.20;99.90
3923;DHT22;1976;51.694;6.256;2022-09-23T02:17:49;11.20;99.90
3923;DHT22;1976;51.694;6.256;2022-09-23T02:20:21;11.20;99.90
3923;DHT22;1976;51.694;6.256;2022-09-23T02:22:55;11.10;99.90
3923;DHT22;1976;51.694;6.256;2022-09-23T02:25:40;11.00;99.90
3923;DHT22;1976;51.694;6.256;2022-09-23T02:28:23;11.00;99.90
3923;DHT22;1976;51.694;6.256;2022-09-23T02:31:20;11.00;99.90
3923;DHT22;1976;51.694;6.256;2022-09-23T02:34:12;11.00;99.90
3923;DHT22;1976;51.694;6.256;2022-09-23T02:39:22;10.90;99.90
3923;DHT22;1976;51.694;6.256;2022-09-23T02:42:03;10.80;99.90
3923;DHT22;1976;51.694;6.256;2022-09-23T02:44:31;10.70;99.90
3923;DHT22;1976;51.694;6.256;2022-09-23T02:46:57;10.90;99.90
3923;DHT22;1976;51.694;6.256;2022-09-23T02:49:30;11.00;99.90
3923;DHT22;1976;51.694;6.256;2022-09-23T02:52:02;11.00;99.90
3923;DHT22;1976;51.694;6.256;2022-09-23T02:54:30;11.00;99.90
3923;DHT22;1976;51.694;6.256;2022-09-23T02:56:59;11.10;99.90
3923;DHT22;1976;51.694;6.256;2022-09-23T02:59:26;11.10;99.90
3923;DHT22;1976;51.694;6.256;2022-09-23T03:02:34;11.00;99.90
3923;DHT22;1976;51.694;6.256;2022-09-23T03:18:48;10.60;99.90
3923;DHT22;1976;51.694;6.256;2022-09-23T03:21:35;10.70;99.90
3923;DHT22;1976;51.694;6.256;2022-09-23T03:24:01;10.70;99.90
3923;DHT22;1976;51.694;6.256;2022-09-23T03:26:32;10.70;99.90
3923;DHT22;1976;51.694;6.256;2022-09-23T03:29:02;10.80;99.90
3923;DHT22;1976;51.694;6.256;2022-09-23T03:31:28;10.90;99.90
3923;DHT22;1976;51.694;6.256;2022-09-23T03:33:58;10.80;99.90
3923;DHT22;1976;51.694;6.256;2022-09-23T03:36:34;10.70;99.90
3923;DHT22;1976;51.694;6.256;2022-09-23T03:41:56;10.60;99.90
3923;DHT22;1976;51.694;6.256;2022-09-23T03:44:23;10.70;99.90
3923;DHT22;1976;51.694;6.256;2022-09-23T03:46:49;10.70;99.90
3923;DHT22;1976;51.694;6.256;2022-09-23T03:49:26;10.70;99.90
3923;DHT22;1976;51.694;6.256;2022-09-23T03:51:53;10.60;99.90
3923;DHT22;1976;51.694;6.256;2022-09-23T03:54:19;10.60;99.90
3923;DHT22;1976;51.694;6.256;2022-09-23T03:56:45;10.60;99.90
3923;DHT22;1976;51.694;6.256;2022-09-23T03:59:14;10.50;99.90
3923;DHT22;1976;51.694;6.256;2022-09-23T04:01:41;10.40;99.90
3923;DHT22;1976;51.694;6.256;2022-09-23T04:04:07;10.40;99.90
3923;DHT22;1976;51.694;6.256;2022-09-23T04:06:34;10.30;99.90
3923;DHT22;1976;51.694;6.256;2022-09-23T04:09:00;10.30;99.90
3923;DHT22;1976;51.694;6.256;2022-09-23T04:11:26;10.30;99.90
3923;DHT22;1976;51.694;6.256;2022-09-23T04:13:54;10.20;99.90
3923;DHT22;1976;51.694;6.256;2022-09-23T04:16:20;10.10;99.90
3923;DHT22;1976;51.694;6.256;2022-09-23T04:18:46;10.20;99.90
3923;DHT22;1976;51.694;6.256;2022-09-23T04:21:11;10.20;99.90
3923;DHT22;1976;51.694;6.256;2022-09-23T04:23:37;10.30;99.90
3923;DHT22;1976;51.694;6.256;2022-09-23T04:26:03;10.30;99.90
3923;DHT22;1976;51.694;6.256;2022-09-23T04:28:30;10.20;99.90
3923;DHT22;1976;51.694;6.256;2022-09-23T04:30:56;10.20;99.90
3923;DHT22;1976;51.694;6.256;2022-09-23T04:33:22;10.20;99.90
3923;DHT22;1976;51.694;6.256;2022-09-23T04:35:52;10.20;99.90
3923;DHT22;1976;51.694;6.256;2022-09-23T04:38:18;10.20;99.90
3923;DHT22;1976;51.694;6.256;2022-09-23T04:40:44;10.20;99.90
3923;DHT22;1976;51.694;6.256;2022-09-23T04:43:09;10.10;99.90
3923;DHT22;1976;51.694;6.256;2022-09-23T04:45:35;10.10;99.90
3923;DHT22;1976;51.694;6.256;2022-09-23T04:48:01;10.10;99.90
3923;DHT22;1976;51.694;6.256;2022-09-23T04:50:27;10.00;99.90
3923;DHT22;1976;51.694;6.256;2022-09-23T04:52:53;10.10;99.90
3923;DHT22;1976;51.694;6.256;2022-09-23T04:55:20;10.10;99.90
3923;DHT22;1976;51.694;6.256;2022-09-23T04:57:46;10.10;99.90
3923;DHT22;1976;51.694;6.256;2022-09-23T05:00:12;10.20;99.90
3923;DHT22;1976;51.694;6.256;2022-09-23T05:02:47;10.20;99.90
3923;DHT22;1976;51.694;6.256;2022-09-23T05:05:13;10.20;99.90
3923;DHT22;1976;51.694;6.256;2022-09-23T05:07:44;10.10;99.90
3923;DHT22;1976;51.694;6.256;2022-09-23T05:10:10;10.10;99.90
3923;DHT22;1976;51.694;6.256;2022-09-23T05:12:35;10.20;99.90
3923;DHT22;1976;51.694;6.256;2022-09-23T05:15:01;10.30;99.90
3923;DHT22;1976;51.694;6.256;2022-09-23T05:17:27;10.30;99.90
3923;DHT22;1976;51.694;6.256;2022-09-23T05:19:53;10.30;99.90
3923;DHT22;1976;51.694;6.256;2022-09-23T05:22:18;10.30;99.90
3923;DHT22;1976;51.694;6.256;2022-09-23T05:24:44;10.20;99.90
3923;DHT22;1976;51.694;6.256;2022-09-23T05:27:10;10.10;99.90
3923;DHT22;1976;51.694;6.256;2022-09-23T05:29:36;10.10;99.90
3923;DHT22;1976;51.694;6.256;2022-09-23T05:32:03;10.00;99.90
3923;DHT22;1976;51.694;6.256;2022-09-23T05:34:28;9.90;99.90
3923;DHT22;1976;51.694;6.256;2022-09-23T05:36:54;10.00;99.90
3923;DHT22;1976;51.694;6.256;2022-09-23T05:39:20;10.00;99.90
3923;DHT22;1976;51.694;6.256;2022-09-23T05:41:45;10.00;99.90
3923;DHT22;1976;51.694;6.256;2022-09-23T05:44:11;10.00;99.90
3923;DHT22;1976;51.694;6.256;2022-09-23T05:46:37;10.10;99.90
3923;DHT22;1976;51.694;6.256;2022-09-23T05:49:03;10.10;99.90
3923;DHT22;1976;51.694;6.256;2022-09-23T05:51:31;10.20;99.90
3923;DHT22;1976;51.694;6.256;2022-09-23T05:53:57;10.20;99.90
3923;DHT22;1976;51.694;6.256;2022-09-23T05:56:24;10.30;99.90
3923;DHT22;1976;51.694;6.256;2022-09-23T05:58:53;10.40;99.90
3923;DHT22;1976;51.694;6.256;2022-09-23T06:01:21;10.40;99.90
3923;DHT22;1976;51.694;6.256;2022-09-23T06:03:50;10.30;99.90
3923;DHT22;1976;51.694;6.256;2022-09-23T06:06:17;10.30;99.90
3923;DHT22;1976;51.694;6.256;2022-09-23T06:08:44;10.40;99.90
3923;DHT22;1976;51.694;6.256;2022-09-23T06:11:10;10.50;99.90
3923;DHT22;1976;51.694;6.256;2022-09-23T06:13:37;10.50;99.90
3923;DHT22;1976;51.694;6.256;2022-09-23T06:16:13;10.50;99.90
3923;DHT22;1976;51.694;6.256;2022-09-23T06:18:41;10.60;99.90
3923;DHT22;1976;51.694;6.256;2022-09-23T06:21:08;10.70;99.90
3923;DHT22;1976;51.694;6.256;2022-09-23T06:23:34;10.70;99.90
3923;DHT22;1976;51.694;6.256;2022-09-23T06:26:05;10.70;99.90
3923;DHT22;1976;51.694;6.256;2022-09-23T06:28:32;10.80;99.90
3923;DHT22;1976;51.694;6.256;2022-09-23T06:30:59;10.80;99.90
3923;DHT22;1976;51.694;6.256;2022-09-23T06:33:26;10.90;99.90
3923;DHT22;1976;51.694;6.256;2022-09-23T06:36:00;11.00;99.90
3923;DHT22;1976;51.694;6.256;2022-09-23T06:38:26;11.10;99.90
3923;DHT22;1976;51.694;6.256;2022-09-23T06:40:53;11.10;99.90
3923;DHT22;1976;51.694;6.256;2022-09-23T06:43:21;11.10;99.90
3923;DHT22;1976;51.694;6.256;2022-09-23T06:45:54;11.20;99.90
3923;DHT22;1976;51.694;6.256;2022-09-23T06:48:21;11.30;99.90
3923;DHT22;1976;51.694;6.256;2022-09-23T06:50:46;11.40;99.90
3923;DHT22;1976;51.694;6.256;2022-09-23T06:53:15;11.50;99.90
3923;DHT22;1976;51.694;6.256;2022-09-23T06:55:41;11.50;99.90
3923;DHT22;1976;51.694;6.256;2022-09-23T06:58:07;11.60;99.90
3923;DHT22;1976;51.694;6.256;2022-09-23T07:00:34;11.50;99.90
3923;DHT22;1976;51.694;6.256;2022-09-23T07:03:00;11.50;99.90
3923;DHT22;1976;51.694;6.256;2022-09-23T07:05:26;11.70;99.90
3923;DHT22;1976;51.694;6.256;2022-09-23T07:07:51;11.80;99.90
3923;DHT22;1976;51.694;6.256;2022-09-23T07:10:18;11.80;99.90
3923;DHT22;1976;51.694;6.256;2022-09-23T07:12:43;12.00;99.90
3923;DHT22;1976;51.694;6.256;2022-09-23T07:15:09;11.90;99.90
3923;DHT22;1976;51.694;6.256;2022-09-23T07:17:35;11.90;99.90
3923;DHT22;1976;51.694;6.256;2022-09-23T07:20:01;12.00;99.90
3923;DHT22;1976;51.694;6.256;2022-09-23T07:22:27;12.10;99.90
3923;DHT22;1976;51.694;6.256;2022-09-23T07:24:53;12.10;99.90
3923;DHT22;1976;51.694;6.256;2022-09-23T07:27:23;12.10;99.90
3923;DHT22;1976;51.694;6.256;2022-09-23T07:29:48;12.20;99.90
3923;DHT22;1976;51.694;6.256;2022-09-23T07:32:15;12.30;99.90
3923;DHT22;1976;51.694;6.256;2022-09-23T07:34:41;12.50;99.90
3923;DHT22;1976;51.694;6.256;2022-09-23T07:37:08;12.50;99.90
3923;DHT22;1976;51.694;6.256;2022-09-23T07:39:35;12.40;99.90
3923;DHT22;1976;51.694;6.256;2022-09-23T07:42:05;12.50;99.90
3923;DHT22;1976;51.694;6.256;2022-09-23T07:44:31;12.50;99.90
3923;DHT22;1976;51.694;6.256;2022-09-23T07:46:58;12.60;99.90
3923;DHT22;1976;51.694;6.256;2022-09-23T07:49:24;12.80;99.90
3923;DHT22;1976;51.694;6.256;2022-09-23T07:51:50;12.70;99.90
3923;DHT22;1976;51.694;6.256;2022-09-23T07:54:17;12.70;99.90
3923;DHT22;1976;51.694;6.256;2022-09-23T07:56:44;12.80;99.90
3923;DHT22;1976;51.694;6.256;2022-09-23T07:59:13;12.70;99.90
3923;DHT22;1976;51.694;6.256;2022-09-23T08:01:42;12.80;99.90
3923;DHT22;1976;51.694;6.256;2022-09-23T08:04:18;12.90;99.90
3923;DHT22;1976;51.694;6.256;2022-09-23T08:06:49;13.10;99.90
3923;DHT22;1976;51.694;6.256;2022-09-23T08:09:17;13.20;99.90
3923;DHT22;1976;51.694;6.256;2022-09-23T08:11:43;13.30;99.90
3923;DHT22;1976;51.694;6.256;2022-09-23T08:14:13;13.50;99.90
3923;DHT22;1976;51.694;6.256;2022-09-23T08:16:39;13.60;99.90
3923;DHT22;1976;51.694;6.256;2022-09-23T08:19:06;13.70;99.90
3923;DHT22;1976;51.694;6.256;2022-09-23T08:21:32;14.00;99.90
3923;DHT22;1976;51.694;6.256;2022-09-23T08:23:58;14.20;99.90
3923;DHT22;1976;51.694;6.256;2022-09-23T08:26:24;14.60;99.90
3923;DHT22;1976;51.694;6.256;2022-09-23T08:28:50;14.70;99.90
3923;DHT22;1976;51.694;6.256;2022-09-23T08:31:18;14.80;99.90
3923;DHT22;1976;51.694;6.256;2022-09-23T08:33:44;15.00;99.90
3923;DHT22;1976;51.694;6.256;2022-09-23T08:36:10;15.20;99.90
3923;DHT22;1976;51.694;6.256;2022-09-23T08:38:35;15.40;99.90
3923;DHT22;1976;51.694;6.256;2022-09-23T08:41:13;15.40;99.90
3923;DHT22;1976;51.694;6.256;2022-09-23T08:43:48;15.40;99.90
3923;DHT22;1976;51.694;6.256;2022-09-23T08:46:23;15.40;99.90
3923;DHT22;1976;51.694;6.256;2022-09-23T08:48:50;15.40;99.90
3923;DHT22;1976;51.694;6.256;2022-09-23T08:51:24;15.40;99.90
3923;DHT22;1976;51.694;6.256;2022-09-23T08:53:53;15.50;99.90
3923;DHT22;1976;51.694;6.256;2022-09-23T08:56:22;15.80;99.90
3923;DHT22;1976;51.694;6.256;2022-09-23T08:59:12;16.00;99.90
3923;DHT22;1976;51.694;6.256;2022-09-23T09:01:51;16.30;99.90
3923;DHT22;1976;51.694;6.256;2022-09-23T09:09:30;16.20;99.10
3923;DHT22;1976;51.694;6.256;2022-09-23T09:17:04;16.20;99.20
3923;DHT22;1976;51.694;6.256;2022-09-23T09:19:54;16.20;99.40
3923;DHT22;1976;51.694;6.256;2022-09-23T09:25:22;16.20;99.60
3923;DHT22;1976;51.694;6.256;2022-09-23T09:27:50;16.30;98.90
3923;DHT22;1976;51.694;6.256;2022-09-23T09:30:16;16.30;99.00
3923;DHT22;1976;51.694;6.256;2022-09-23T09:38:10;16.90;98.30
3923;DHT22;1976;51.694;6.256;2022-09-23T09:40:43;17.30;98.60
3923;DHT22;1976;51.694;6.256;2022-09-23T09:43:18;17.50;97.10
3923;DHT22;1976;51.694;6.256;2022-09-23T09:48:38;18.00;96.30
3923;DHT22;1976;51.694;6.256;2022-09-23T09:51:22;18.30;96.20
3923;DHT22;1976;51.694;6.256;2022-09-23T09:53:49;18.60;96.00
3923;DHT22;1976;51.694;6.256;2022-09-23T09:56:21;18.90;95.10
3923;DHT22;1976;51.694;6.256;2022-09-23T09:58:59;19.10;95.20
3923;DHT22;1976;51.694;6.256;2022-09-23T10:01:28;19.30;94.60
3923;DHT22;1976;51.694;6.256;2022-09-23T10:03:56;19.40;94.70
3923;DHT22;1976;51.694;6.256;2022-09-23T10:06:28;19.50;95.00
3923;DHT22;1976;51.694;6.256;2022-09-23T10:09:07;19.60;93.80
3923;DHT22;1976;51.694;6.256;2022-09-23T10:11:34;19.80;94.00
3923;DHT22;1976;51.694;6.256;2022-09-23T10:14:02;20.40;93.70
3923;DHT22;1976;51.694;6.256;2022-09-23T10:16:30;21.10;92.40
3923;DHT22;1976;51.694;6.256;2022-09-23T10:18:57;21.40;91.40
3923;DHT22;1976;51.694;6.256;2022-09-23T10:21:24;21.90;90.90
3923;DHT22;1976;51.694;6.256;2022-09-23T10:23:53;22.40;89.10
3923;DHT22;1976;51.694;6.256;2022-09-23T10:26:31;22.60;90.00
3923;DHT22;1976;51.694;6.256;2022-09-23T10:29:02;22.80;87.10
3923;DHT22;1976;51.694;6.256;2022-09-23T10:31:30;23.30;86.40
3923;DHT22;1976;51.694;6.256;2022-09-23T10:34:01;23.50;83.00
3923;DHT22;1976;51.694;6.256;2022-09-23T10:36:30;24.00;84.40
3923;DHT22;1976;51.694;6.256;2022-09-23T10:39:03;24.30;81.90
3923;DHT22;1976;51.694;6.256;2022-09-23T10:41:57;24.10;81.00
3923;DHT22;1976;51.694;6.256;2022-09-23T10:50:43;23.20;80.40
3923;DHT22;1976;51.694;6.256;2022-09-23T10:53:24;23.30;82.50
3923;DHT22;1976;51.694;6.256;2022-09-23T10:58:59;22.90;81.50
3923;DHT22;1976;51.694;6.256;2022-09-23T11:04:42;22.50;83.60
3923;DHT22;1976;51.694;6.256;2022-09-23T11:12:31;21.70;84.30
3923;DHT22;1976;51.694;6.256;2022-09-23T11:37:23;20.50;89.60
3923;DHT22;1976;51.694;6.256;2022-09-23T11:40:01;20.50;90.30
3923;DHT22;1976;51.694;6.256;2022-09-23T11:42:35;20.40;89.80
3923;DHT22;1976;51.694;6.256;2022-09-23T11:45:14;20.40;90.50
3923;DHT22;1976;51.694;6.256;2022-09-23T11:47:54;20.50;90.30
3923;DHT22;1976;51.694;6.256;2022-09-23T11:50:43;20.50;90.30
3923;DHT22;1976;51.694;6.256;2022-09-23T11:53:34;20.40;90.10
3923;DHT22;1976;51.694;6.256;2022-09-23T11:56:49;20.50;91.30
3923;DHT22;1976;51.694;6.256;2022-09-23T11:59:02;20.50;91.10
3923;DHT22;1976;51.694;6.256;2022-09-23T12:01:32;20.60;90.40
3923;DHT22;1976;51.694;6.256;2022-09-23T12:06:47;20.80;88.70
3923;DHT22;1976;51.694;6.256;2022-09-23T12:09:29;20.90;88.90
3923;DHT22;1976;51.694;6.256;2022-09-23T12:28:18;22.10;86.70
3923;DHT22;1976;51.694;6.256;2022-09-23T12:30:45;22.50;85.20
3923;DHT22;1976;51.694;6.256;2022-09-23T12:34:15;22.80;83.90
3923;DHT22;1976;51.694;6.256;2022-09-23T12:36:08;23.30;83.80
3923;DHT22;1976;51.694;6.256;2022-09-23T12:38:45;24.10;82.40
3923;DHT22;1976;51.694;6.256;2022-09-23T12:41:32;24.10;77.50
3923;DHT22;1976;51.694;6.256;2022-09-23T12:46:38;24.00;78.50
3923;DHT22;1976;51.694;6.256;2022-09-23T12:49:07;24.30;76.40
3923;DHT22;1976;51.694;6.256;2022-09-23T12:52:11;24.20;77.80
3923;DHT22;1976;51.694;6.256;2022-09-23T12:54:42;23.70;76.40
3923;DHT22;1976;51.694;6.256;2022-09-23T12:57:13;23.30;77.30
3923;DHT22;1976;51.694;6.256;2022-09-23T12:59:51;22.90;77.80
3923;DHT22;1976;51.694;6.256;2022-09-23T13:02:33;22.50;78.50
3923;DHT22;1976;51.694;6.256;2022-09-23T13:05:22;22.40;79.70
3923;DHT22;1976;51.694;6.256;2022-09-23T13:10:47;22.20;81.30
3923;DHT22;1976;51.694;6.256;2022-09-23T13:13:38;22.30;79.90
3923;DHT22;1976;51.694;6.256;2022-09-23T13:16:29;22.20;82.00
3923;DHT22;1976;51.694;6.256;2022-09-23T13:19:00;22.10;81.50
3923;DHT22;1976;51.694;6.256;2022-09-23T13:26:56;21.50;81.50
3923;DHT22;1976;51.694;6.256;2022-09-23T13:29:51;21.40;84.00
3923;DHT22;1976;51.694;6.256;2022-09-23T13:32:19;21.30;85.10
3923;DHT22;1976;51.694;6.256;2022-09-23T13:34:53;21.10;85.40
3923;DHT22;1976;51.694;6.256;2022-09-23T13:37:23;20.90;82.90
3923;DHT22;1976;51.694;6.256;2022-09-23T13:39:49;20.90;85.40
3923;DHT22;1976;51.694;6.256;2022-09-23T13:42:34;20.70;86.00
3923;DHT22;1976;51.694;6.256;2022-09-23T13:45:02;20.50;85.50
3923;DHT22;1976;51.694;6.256;2022-09-23T13:47:29;20.40;85.40
3923;DHT22;1976;51.694;6.256;2022-09-23T13:49:56;20.20;85.40
3923;DHT22;1976;51.694;6.256;2022-09-23T13:52:25;20.10;86.90
3923;DHT22;1976;51.694;6.256;2022-09-23T13:54:51;20.20;89.40
3923;DHT22;1976;51.694;6.256;2022-09-23T13:59:48;20.30;86.00
3923;DHT22;1976;51.694;6.256;2022-09-23T14:02:15;20.40;87.00
3923;DHT22;1976;51.694;6.256;2022-09-23T14:04:41;20.50;86.40
3923;DHT22;1976;51.694;6.256;2022-09-23T14:07:11;20.60;87.40
3923;DHT22;1976;51.694;6.256;2022-09-23T14:09:41;20.70;85.90
3923;DHT22;1976;51.694;6.256;2022-09-23T14:12:08;20.60;85.40
3923;DHT22;1976;51.694;6.256;2022-09-23T14:14:36;20.50;85.80
3923;DHT22;1976;51.694;6.256;2022-09-23T14:17:04;20.50;88.20
3923;DHT22;1976;51.694;6.256;2022-09-23T14:19:30;20.50;86.20
3923;DHT22;1976;51.694;6.256;2022-09-23T14:21:57;20.30;85.60
3923;DHT22;1976;51.694;6.256;2022-09-23T14:24:34;20.20;87.10
3923;DHT22;1976;51.694;6.256;2022-09-23T14:29:41;20.20;90.00
3923;DHT22;1976;51.694;6.256;2022-09-23T14:40:29;19.90;89.50
3923;DHT22;1976;51.694;6.256;2022-09-23T14:43:13;19.90;90.50
3923;DHT22;1976;51.694;6.256;2022-09-23T14:45:43;19.90;90.30
3923;DHT22;1976;51.694;6.256;2022-09-23T14:50:53;19.70;91.00
3923;DHT22;1976;51.694;6.256;2022-09-23T14:55:54;19.60;91.40
3923;DHT22;1976;51.694;6.256;2022-09-23T14:58:26;19.50;91.30
3923;DHT22;1976;51.694;6.256;2022-09-23T15:00:56;19.50;91.60
3923;DHT22;1976;51.694;6.256;2022-09-23T15:03:22;19.50;92.10
3923;DHT22;1976;51.694;6.256;2022-09-23T15:05:50;19.50;92.20
3923;DHT22;1976;51.694;6.256;2022-09-23T15:08:23;19.60;92.50
3923;DHT22;1976;51.694;6.256;2022-09-23T15:10:51;19.60;92.30
3923;DHT22;1976;51.694;6.256;2022-09-23T15:13:21;19.50;91.50
3923;DHT22;1976;51.694;6.256;2022-09-23T15:15:51;19.50;91.80
3923;DHT22;1976;51.694;6.256;2022-09-23T15:18:25;19.50;92.60
3923;DHT22;1976;51.694;6.256;2022-09-23T15:20:58;19.60;92.60
3923;DHT22;1976;51.694;6.256;2022-09-23T15:26:39;19.60;92.40
3923;DHT22;1976;51.694;6.256;2022-09-23T15:29:07;19.60;92.90
3923;DHT22;1976;51.694;6.256;2022-09-23T15:31:34;19.60;93.10
3923;DHT22;1976;51.694;6.256;2022-09-23T15:34:00;19.50;92.70
3923;DHT22;1976;51.694;6.256;2022-09-23T15:36:27;19.50;92.90
3923;DHT22;1976;51.694;6.256;2022-09-23T15:38:54;19.50;93.40
3923;DHT22;1976;51.694;6.256;2022-09-23T15:41:22;19.40;93.20
3923;DHT22;1976;51.694;6.256;2022-09-23T15:43:49;19.40;93.50
3923;DHT22;1976;51.694;6.256;2022-09-23T15:46:25;19.40;94.00
3923;DHT22;1976;51.694;6.256;2022-09-23T15:49:07;19.20;93.70
3923;DHT22;1976;51.694;6.256;2022-09-23T15:51:34;19.20;94.30
3923;DHT22;1976;51.694;6.256;2022-09-23T15:54:01;19.20;94.50
3923;DHT22;1976;51.694;6.256;2022-09-23T15:56:27;19.10;95.00
3923;DHT22;1976;51.694;6.256;2022-09-23T15:58:52;19.00;94.90
3923;DHT22;1976;51.694;6.256;2022-09-23T16:01:29;18.90;94.80
3923;DHT22;1976;51.694;6.256;2022-09-23T16:03:55;18.80;95.00
3923;DHT22;1976;51.694;6.256;2022-09-23T16:06:21;18.80;95.30
3923;DHT22;1976;51.694;6.256;2022-09-23T16:08:49;18.80;95.50
3923;DHT22;1976;51.694;6.256;2022-09-23T16:11:34;18.80;95.70
3923;DHT22;1976;51.694;6.256;2022-09-23T16:14:00;18.80;95.90
3923;DHT22;1976;51.694;6.256;2022-09-23T16:16:26;18.70;96.40
3923;DHT22;1976;51.694;6.256;2022-09-23T16:18:52;18.60;96.50
3923;DHT22;1976;51.694;6.256;2022-09-23T16:21:22;18.50;96.70
3923;DHT22;1976;51.694;6.256;2022-09-23T16:23:49;18.50;96.90
3923;DHT22;1976;51.694;6.256;2022-09-23T16:26:30;18.50;97.20
3923;DHT22;1976;51.694;6.256;2022-09-23T16:28:57;18.50;97.60
3923;DHT22;1976;51.694;6.256;2022-09-23T16:31:24;18.40;98.10
3923;DHT22;1976;51.694;6.256;2022-09-23T16:33:50;18.30;98.80
3923;DHT22;1976;51.694;6.256;2022-09-23T16:36:24;18.10;99.10
3923;DHT22;1976;51.694;6.256;2022-09-23T16:38:52;17.80;99.90
3923;DHT22;1976;51.694;6.256;2022-09-23T16:41:22;17.80;99.90
3923;DHT22;1976;51.694;6.256;2022-09-23T16:43:51;17.70;99.90
3923;DHT22;1976;51.694;6.256;2022-09-23T16:46:19;17.70;99.90
3923;DHT22;1976;51.694;6.256;2022-09-23T16:48:45;17.70;99.90
3923;DHT22;1976;51.694;6.256;2022-09-23T16:51:23;17.60;99.90
3923;DHT22;1976;51.694;6.256;2022-09-23T16:53:51;17.60;99.90
3923;DHT22;1976;51.694;6.256;2022-09-23T16:56:18;17.60;99.90
3923;DHT22;1976;51.694;6.256;2022-09-23T16:58:46;17.60;99.90
3923;DHT22;1976;51.694;6.256;2022-09-23T17:01:23;17.60;99.90
3923;DHT22;1976;51.694;6.256;2022-09-23T17:04:08;17.60;99.90
3923;DHT22;1976;51.694;6.256;2022-09-23T17:06:36;17.50;99.90
3923;DHT22;1976;51.694;6.256;2022-09-23T17:09:06;17.50;99.90
3923;DHT22;1976;51.694;6.256;2022-09-23T17:11:31;17.50;99.90
3923;DHT22;1976;51.694;6.256;2022-09-23T17:13:57;17.50;99.90
3923;DHT22;1976;51.694;6.256;2022-09-23T17:16:28;17.50;99.90
3923;DHT22;1976;51.694;6.256;2022-09-23T17:18:55;17.50;99.90
3923;DHT22;1976;51.694;6.256;2022-09-23T17:21:25;17.50;99.90
3923;DHT22;1976;51.694;6.256;2022-09-23T17:23:54;17.50;99.90
3923;DHT22;1976;51.694;6.256;2022-09-23T17:26:22;17.50;99.90
3923;DHT22;1976;51.694;6.256;2022-09-23T17:28:52;17.40;99.90
3923;DHT22;1976;51.694;6.256;2022-09-23T17:31:18;17.40;99.90
3923;DHT22;1976;51.694;6.256;2022-09-23T17:33:46;17.40;99.90
3923;DHT22;1976;51.694;6.256;2022-09-23T17:36:13;17.40;99.90
3923;DHT22;1976;51.694;6.256;2022-09-23T17:38:41;17.30;99.90
3923;DHT22;1976;51.694;6.256;2022-09-23T17:41:08;17.30;99.90
3923;DHT22;1976;51.694;6.256;2022-09-23T17:43:34;17.20;99.90
3923;DHT22;1976;51.694;6.256;2022-09-23T17:46:08;17.20;99.90
3923;DHT22;1976;51.694;6.256;2022-09-23T17:48:37;17.20;99.90
3923;DHT22;1976;51.694;6.256;2022-09-23T17:51:05;17.20;99.90
3923;DHT22;1976;51.694;6.256;2022-09-23T17:53:33;17.10;99.90
3923;DHT22;1976;51.694;6.256;2022-09-23T17:56:10;17.00;99.90
3923;DHT22;1976;51.694;6.256;2022-09-23T17:58:37;17.00;99.90
3923;DHT22;1976;51.694;6.256;2022-09-23T18:01:06;16.90;99.90
3923;DHT22;1976;51.694;6.256;2022-09-23T18:03:32;16.80;99.90
3923;DHT22;1976;51.694;6.256;2022-09-23T18:06:15;16.80;99.90
3923;DHT22;1976;51.694;6.256;2022-09-23T18:08:42;16.70;99.90
3923;DHT22;1976;51.694;6.256;2022-09-23T18:11:34;16.70;99.90
3923;DHT22;1976;51.694;6.256;2022-09-23T18:14:05;16.70;99.90
3923;DHT22;1976;51.694;6.256;2022-09-23T18:16:36;16.80;99.90
3923;DHT22;1976;51.694;6.256;2022-09-23T18:19:03;16.80;99.90
3923;DHT22;1976;51.694;6.256;2022-09-23T18:21:35;16.70;99.90
3923;DHT22;1976;51.694;6.256;2022-09-23T18:24:01;16.70;99.90
3923;DHT22;1976;51.694;6.256;2022-09-23T18:26:27;16.60;99.90
3923;DHT22;1976;51.694;6.256;2022-09-23T18:28:54;16.60;99.90
3923;DHT22;1976;51.694;6.256;2022-09-23T18:31:24;16.50;99.90
3923;DHT22;1976;51.694;6.256;2022-09-23T18:33:52;16.40;99.90
3923;DHT22;1976;51.694;6.256;2022-09-23T18:36:19;16.30;99.90
3923;DHT22;1976;51.694;6.256;2022-09-23T18:38:45;16.40;99.90
3923;DHT22;1976;51.694;6.256;2022-09-23T18:41:11;16.50;99.90
3923;DHT22;1976;51.694;6.256;2022-09-23T18:43:37;16.60;99.90
3923;DHT22;1976;51.694;6.256;2022-09-23T18:46:05;16.70;99.90
3923;DHT22;1976;51.694;6.256;2022-09-23T18:48:32;16.80;99.90
3923;DHT22;1976;51.694;6.256;2022-09-23T18:51:18;16.90;99.90
3923;DHT22;1976;51.694;6.256;2022-09-23T18:53:44;16.90;99.90
3923;DHT22;1976;51.694;6.256;2022-09-23T18:56:13;16.90;99.90
3923;DHT22;1976;51.694;6.256;2022-09-23T18:58:50;16.90;99.90
3923;DHT22;1976;51.694;6.256;2022-09-23T19:01:17;16.90;99.90
3923;DHT22;1976;51.694;6.256;2022-09-23T19:03:44;16.90;99.90